Time;durP1;ratioP1;P1;durP2;ratioP2;P2;SDS_P1;SDS_P2;PMS_P1;PMS_P2;Temp;Humidity;BMP_temperature;BMP_pressure;BME280_temperature;BME280_humidity;BME280_pressure;Samples;Min_cycle;Max_cycle;Signal;HPM_P1;HPM_P2
2023/01/14 00:00:22;;;;;;;12.67;3.07;;;;;;;;;;6363840;28;20269;-76
2023/01/14 00:03:28;;;;;;;16.77;3.10;;;;;;;;;;6363918;28;20265;-76
2023/01/14 00:06:35;;;;;;;14.87;3.07;;;;;;;;;;6364844;28;20446;-77
2023/01/14 00:09:40;;;;;;;20.00;2.90;;;;;;;;;;6364197;27;20288;-76
2023/01/14 00:12:45;;;;;;;12.83;3.43;;;;;;;;;;6363762;28;20563;-77
2023/01/14 00:15:54;;;;;;;12.63;2.93;;;;;;;;;;6364336;28;20273;-76
2023/01/14 00:18:59;;;;;;;10.93;3.40;;;;;;;;;;6363694;28;20300;-77
2023/01/14 00:22:04;;;;;;;12.33;3.10;;;;;;;;;;6364398;28;20268;-75
2023/01/14 00:25:10;;;;;;;11.20;4.33;;;;;;;;;;6363855;28;20268;-76
2023/01/14 00:28:15;;;;;;;9.43;3.07;;;;;;;;;;6364145;27;20292;-77
2023/01/14 00:31:24;;;;;;;7.87;3.40;;;;;;;;;;6363878;28;20268;-75
2023/01/14 00:34:30;;;;;;;16.63;3.57;;;;;;;;;;6363016;28;20269;-74
2023/01/14 00:37:38;;;;;;;10.77;3.10;;;;;;;;;;6363845;28;20274;-76
2023/01/14 00:40:45;;;;;;;10.90;3.30;;;;;;;;;;6361427;28;20272;-77
2023/01/14 00:43:53;;;;;;;12.37;4.00;;;;;;;;;;6362737;28;20269;-76
2023/01/14 00:47:00;;;;;;;13.77;3.53;;;;;;;;;;6363541;27;20265;-76
2023/01/14 00:50:06;;;;;;;6.63;3.00;;;;;;;;;;6362311;28;20285;-76
2023/01/14 00:53:12;;;;;;;9.63;3.83;;;;;;;;;;6362062;28;20264;-76
2023/01/14 00:56:19;;;;;;;13.50;3.20;;;;;;;;;;6363741;27;20261;-76
2023/01/14 00:59:25;;;;;;;9.53;2.97;;;;;;;;;;6361585;28;20292;-76
2023/01/14 01:02:31;;;;;;;7.60;2.70;;;;;;;;;;6363108;28;20267;-76
2023/01/14 01:05:37;;;;;;;9.37;2.40;;;;;;;;;;6361082;28;20269;-76
2023/01/14 01:08:43;;;;;;;1.80;1.70;;;;;;;;;;6362967;28;20332;-76
2023/01/14 01:11:51;;;;;;;2.67;1.73;;;;;;;;;;6361546;28;20268;-76
2023/01/14 01:14:57;;;;;;;7.67;1.93;;;;;;;;;;6361977;28;20461;-76
2023/01/14 01:18:04;;;;;;;4.83;1.93;;;;;;;;;;6360710;28;20436;-77
2023/01/14 01:21:14;;;;;;;4.47;1.40;;;;;;;;;;6361882;28;20433;-76
2023/01/14 01:24:19;;;;;;;3.30;1.10;;;;;;;;;;6360340;28;20264;-76
2023/01/14 01:27:25;;;;;;;1.40;1.10;;;;;;;;;;6361088;28;20273;-76
2023/01/14 01:30:30;;;;;;;2.80;1.33;;;;;;;;;;6362997;28;20448;-76
2023/01/14 01:33:36;;;;;;;1.53;1.30;;;;;;;;;;6360145;28;20553;-77
2023/01/14 01:36:43;;;;;;;2.80;1.73;;;;;;;;;;6361776;28;20272;-76
2023/01/14 01:39:48;;;;;;;2.10;1.87;;;;;;;;;;6361414;27;20289;-77
2023/01/14 01:42:57;;;;;;;1.70;1.43;;;;;;;;;;6362410;28;20269;-76
2023/01/14 01:46:03;;;;;;;4.53;1.90;;;;;;;;;;6361104;28;20443;-76
2023/01/14 01:49:12;;;;;;;6.00;1.70;;;;;;;;;;6360502;28;20291;-76
2023/01/14 01:52:20;;;;;;;5.53;2.07;;;;;;;;;;6361105;28;20552;-76
2023/01/14 01:55:26;;;;;;;6.67;2.20;;;;;;;;;;6360916;28;20275;-75
2023/01/14 01:58:32;;;;;;;3.70;1.93;;;;;;;;;;6361622;28;20260;-75
2023/01/14 02:01:38;;;;;;;5.90;2.57;;;;;;;;;;6351809;22;20306;-80
2023/01/14 02:04:45;;;;;;;8.20;2.40;;;;;;;;;;6286678;28;20266;-80
2023/01/14 02:07:50;;;;;;;9.47;3.00;;;;;;;;;;6284662;28;20571;-79
2023/01/14 02:11:10;;;;;;;7.90;2.63;;;;;;;;;;6284335;28;20287;-80
2023/01/14 02:14:23;;;;;;;6.47;3.10;;;;;;;;;;6285378;28;20275;-80
2023/01/14 02:17:36;;;;;;;7.60;3.17;;;;;;;;;;6294433;28;20271;-80
2023/01/14 02:20:47;;;;;;;4.93;2.80;;;;;;;;;;6293671;28;20271;-79
2023/01/14 02:24:33;;;;;;;9.70;2.93;;;;;;;;;;6295725;28;20264;-80
2023/01/14 02:27:43;;;;;;;12.47;3.40;;;;;;;;;;6295685;28;20266;-80
2023/01/14 02:30:56;;;;;;;4.57;2.80;;;;;;;;;;6292989;28;20294;-79
2023/01/14 02:34:05;;;;;;;11.57;3.20;;;;;;;;;;6284428;28;20271;-79
2023/01/14 02:37:13;;;;;;;11.57;3.40;;;;;;;;;;6289262;28;20547;-80
2023/01/14 02:40:22;;;;;;;10.20;3.80;;;;;;;;;;6290827;28;20278;-80
2023/01/14 02:46:59;;;;;;;15.77;3.63;;;;;;;;;;6289661;28;20273;-79
2023/01/14 02:50:08;;;;;;;10.30;3.60;;;;;;;;;;6289054;28;20575;-80
2023/01/14 02:53:18;;;;;;;15.67;3.77;;;;;;;;;;6288713;28;20278;-80
2023/01/14 02:56:23;;;;;;;10.27;3.10;;;;;;;;;;6288882;28;20270;-79
2023/01/14 02:59:47;;;;;;;17.30;3.47;;;;;;;;;;6289375;28;20266;-79
2023/01/14 03:03:04;;;;;;;11.37;3.10;;;;;;;;;;6288418;28;20400;-80
2023/01/14 03:06:30;;;;;;;5.00;2.57;;;;;;;;;;6289534;28;20262;-80
2023/01/14 03:09:46;;;;;;;7.40;3.17;;;;;;;;;;6289173;28;20369;-80
2023/01/14 03:13:10;;;;;;;6.00;2.53;;;;;;;;;;6288866;28;20275;-80
2023/01/14 03:16:24;;;;;;;6.63;2.30;;;;;;;;;;6289219;28;20270;-78
2023/01/14 03:19:34;;;;;;;7.97;2.33;;;;;;;;;;6289105;28;20524;-78
2023/01/14 03:22:42;;;;;;;5.77;2.40;;;;;;;;;;6287790;28;20461;-78
2023/01/14 03:25:49;;;;;;;6.73;2.67;;;;;;;;;;6288807;28;20271;-77
2023/01/14 03:29:00;;;;;;;5.13;2.27;;;;;;;;;;6288617;28;20440;-79
2023/01/14 03:32:09;;;;;;;11.10;2.40;;;;;;;;;;6287570;28;20290;-79
2023/01/14 03:35:21;;;;;;;6.43;2.20;;;;;;;;;;6287541;28;20278;-79
2023/01/14 03:38:30;;;;;;;4.93;2.73;;;;;;;;;;6287954;28;20403;-79
2023/01/14 03:45:05;;;;;;;7.37;2.30;;;;;;;;;;6289376;28;20275;-79
2023/01/14 03:48:12;;;;;;;5.83;2.10;;;;;;;;;;6287865;28;20270;-79
2023/01/14 03:51:22;;;;;;;9.13;2.43;;;;;;;;;;6288524;28;20287;-79
2023/01/14 03:54:31;;;;;;;5.23;2.37;;;;;;;;;;6288297;28;20270;-79
2023/01/14 03:57:40;;;;;;;5.60;2.70;;;;;;;;;;6288547;28;20275;-78
2023/01/14 04:00:49;;;;;;;3.83;2.53;;;;;;;;;;6288632;28;20278;-78
2023/01/14 04:03:55;;;;;;;5.10;2.27;;;;;;;;;;6288649;28;20266;-78
2023/01/14 04:07:02;;;;;;;6.90;2.33;;;;;;;;;;6288502;28;20270;-79
2023/01/14 04:10:08;;;;;;;6.50;2.43;;;;;;;;;;6287893;28;20270;-79
2023/01/14 04:16:38;;;;;;;5.90;2.53;;;;;;;;;;6288786;28;20278;-78
2023/01/14 04:19:44;;;;;;;4.43;2.20;;;;;;;;;;6287987;28;20389;-78
2023/01/14 04:22:50;;;;;;;4.07;2.30;;;;;;;;;;6288452;28;20270;-78
2023/01/14 04:25:59;;;;;;;7.00;2.30;;;;;;;;;;6286303;28;20459;-78
2023/01/14 04:29:04;;;;;;;5.17;2.23;;;;;;;;;;6288324;28;20267;-77
2023/01/14 04:32:11;;;;;;;6.00;2.37;;;;;;;;;;6288309;28;20290;-79
2023/01/14 04:35:17;;;;;;;10.20;2.50;;;;;;;;;;6288086;28;20369;-79
2023/01/14 04:38:24;;;;;;;8.43;2.60;;;;;;;;;;6288117;28;20262;-79
2023/01/14 04:44:49;;;;;;;6.57;2.30;;;;;;;;;;6265319;28;20274;-79
2023/01/14 04:47:54;;;;;;;5.73;2.23;;;;;;;;;;6287932;28;20400;-78
2023/01/14 04:51:02;;;;;;;6.73;2.30;;;;;;;;;;6286941;28;20298;-78
2023/01/14 04:54:09;;;;;;;6.87;2.17;;;;;;;;;;6287973;28;20263;-79
2023/01/14 04:57:14;;;;;;;5.70;2.20;;;;;;;;;;6287793;28;20267;-79
2023/01/14 05:00:20;;;;;;;7.80;2.10;;;;;;;;;;6285586;28;20299;-79
2023/01/14 05:03:25;;;;;;;6.23;2.47;;;;;;;;;;6287372;28;20297;-79
2023/01/14 05:06:31;;;;;;;7.50;2.57;;;;;;;;;;6287894;28;20275;-78
2023/01/14 05:09:37;;;;;;;6.93;2.30;;;;;;;;;;6288185;28;20266;-79
2023/01/14 05:12:55;;;;;;;6.23;2.57;;;;;;;;;;6285520;28;20481;-79
2023/01/14 05:16:01;;;;;;;4.83;2.00;;;;;;;;;;6286445;28;20579;-79
2023/01/14 05:19:07;;;;;;;5.57;2.00;;;;;;;;;;6287204;28;20282;-78
2023/01/14 05:22:13;;;;;;;5.00;2.47;;;;;;;;;;6286053;28;20274;-78
2023/01/14 05:25:20;;;;;;;6.40;2.43;;;;;;;;;;6286827;28;20270;-78
2023/01/14 05:28:30;;;;;;;4.43;2.33;;;;;;;;;;6287049;28;20274;-79
2023/01/14 05:31:35;;;;;;;8.13;2.23;;;;;;;;;;6286059;28;20294;-79
2023/01/14 05:34:40;;;;;;;5.10;2.50;;;;;;;;;;6286658;28;20271;-79
2023/01/14 05:37:46;;;;;;;8.33;2.93;;;;;;;;;;6285987;28;20271;-78
2023/01/14 05:40:52;;;;;;;7.27;2.30;;;;;;;;;;6286034;28;20263;-78
2023/01/14 05:47:20;;;;;;;4.87;1.90;;;;;;;;;;6286335;28;20454;-78
2023/01/14 05:50:25;;;;;;;7.90;2.70;;;;;;;;;;6285450;28;20263;-78
2023/01/14 05:53:32;;;;;;;4.50;2.10;;;;;;;;;;6286392;28;20291;-78
2023/01/14 05:56:38;;;;;;;10.80;2.70;;;;;;;;;;6286442;28;20263;-79
2023/01/14 05:59:44;;;;;;;6.60;2.83;;;;;;;;;;6285981;28;20263;-78
2023/01/14 06:06:23;;;;;;;5.30;2.60;;;;;;;;;;6286535;28;20562;-79
2023/01/14 06:09:28;;;;;;;7.57;2.30;;;;;;;;;;6285374;28;20290;-79
2023/01/14 06:12:57;;;;;;;6.30;2.80;;;;;;;;;;6286243;28;20322;-78
2023/01/14 06:16:06;;;;;;;5.87;2.53;;;;;;;;;;6286382;28;20271;-79
2023/01/14 06:19:14;;;;;;;9.20;2.53;;;;;;;;;;6284552;28;20562;-78
2023/01/14 06:22:20;;;;;;;6.57;2.13;;;;;;;;;;6285875;28;20223;-78
2023/01/14 06:25:25;;;;;;;5.77;2.67;;;;;;;;;;6285701;28;20270;-79
2023/01/14 06:28:32;;;;;;;6.87;2.50;;;;;;;;;;6285021;28;20263;-79
2023/01/14 06:31:38;;;;;;;8.07;2.67;;;;;;;;;;6285980;28;20273;-78
2023/01/14 06:34:43;;;;;;;7.87;2.97;;;;;;;;;;6285810;28;20288;-78
2023/01/14 06:37:48;;;;;;;8.70;2.83;;;;;;;;;;6285032;28;20291;-78
2023/01/14 06:40:54;;;;;;;4.93;2.60;;;;;;;;;;6285794;28;20267;-78
2023/01/14 06:44:00;;;;;;;7.27;2.87;;;;;;;;;;6284474;28;20271;-79
2023/01/14 06:47:05;;;;;;;4.17;2.63;;;;;;;;;;6285314;28;20275;-79
2023/01/14 06:50:13;;;;;;;5.23;2.53;;;;;;;;;;6284750;28;20266;-78
2023/01/14 06:53:19;;;;;;;7.70;2.80;;;;;;;;;;6284667;28;20290;-78
2023/01/14 06:56:24;;;;;;;3.23;2.67;;;;;;;;;;6285583;28;20564;-79
2023/01/14 06:59:30;;;;;;;4.30;2.30;;;;;;;;;;6283275;28;20267;-79
2023/01/14 07:02:36;;;;;;;4.20;2.13;;;;;;;;;;6284672;28;20298;-78
2023/01/14 07:05:41;;;;;;;5.80;2.53;;;;;;;;;;6285397;28;20439;-79
2023/01/14 07:08:47;;;;;;;5.40;2.30;;;;;;;;;;6283356;28;20425;-79
2023/01/14 07:11:53;;;;;;;6.70;2.60;;;;;;;;;;6286029;28;20275;-79
2023/01/14 07:14:59;;;;;;;9.27;2.37;;;;;;;;;;6285375;28;20268;-78
2023/01/14 07:18:05;;;;;;;6.03;2.47;;;;;;;;;;6283423;28;20542;-79
2023/01/14 07:21:10;;;;;;;11.47;2.60;;;;;;;;;;6284160;28;20267;-79
2023/01/14 07:24:15;;;;;;;7.27;2.60;;;;;;;;;;6288989;28;20277;-79
2023/01/14 07:27:20;;;;;;;4.63;2.10;;;;;;;;;;6290043;28;20274;-79
2023/01/14 07:30:27;;;;;;;3.33;1.87;;;;;;;;;;6289438;28;20287;-79
2023/01/14 07:33:33;;;;;;;5.13;2.17;;;;;;;;;;6289814;28;20363;-79
2023/01/14 07:36:38;;;;;;;2.13;1.93;;;;;;;;;;6290291;28;20271;-78
2023/01/14 07:39:43;;;;;;;6.00;2.23;;;;;;;;;;6288664;28;20275;-79
2023/01/14 07:42:54;;;;;;;6.70;2.07;;;;;;;;;;6289467;28;20273;-78
2023/01/14 07:46:01;;;;;;;3.30;2.20;;;;;;;;;;6297455;28;20266;-79
2023/01/14 07:49:06;;;;;;;4.23;2.43;;;;;;;;;;6291057;28;20275;-79
2023/01/14 07:52:13;;;;;;;10.73;2.50;;;;;;;;;;6288098;28;20267;-79
2023/01/14 07:55:18;;;;;;;2.60;2.13;;;;;;;;;;6288276;28;20274;-79
2023/01/14 07:58:24;;;;;;;5.60;2.30;;;;;;;;;;6289261;28;20263;-79
2023/01/14 08:01:30;;;;;;;6.73;2.60;;;;;;;;;;6288398;28;20295;-79
2023/01/14 08:04:36;;;;;;;3.33;2.20;;;;;;;;;;6288509;28;20294;-79
2023/01/14 08:07:41;;;;;;;7.00;2.13;;;;;;;;;;6288239;28;20270;-79
2023/01/14 08:10:46;;;;;;;3.93;2.00;;;;;;;;;;6288058;28;20263;-79
2023/01/14 08:13:52;;;;;;;7.00;2.50;;;;;;;;;;6288043;28;20323;-78
2023/01/14 08:17:02;;;;;;;3.50;2.17;;;;;;;;;;6288681;28;20263;-79
2023/01/14 08:20:08;;;;;;;4.87;1.90;;;;;;;;;;6288618;28;20269;-81
2023/01/14 08:23:14;;;;;;;7.80;2.60;;;;;;;;;;6287055;28;20275;-78
2023/01/14 08:26:19;;;;;;;3.67;1.97;;;;;;;;;;6288495;28;20266;-79
2023/01/14 08:29:25;;;;;;;6.10;2.50;;;;;;;;;;6288598;28;20291;-80
2023/01/14 08:32:31;;;;;;;3.17;1.80;;;;;;;;;;6288016;28;20527;-79
2023/01/14 08:35:39;;;;;;;5.73;1.90;;;;;;;;;;6287349;28;20295;-80
2023/01/14 08:38:48;;;;;;;2.40;2.20;;;;;;;;;;6286149;28;20279;-80
2023/01/14 08:41:53;;;;;;;2.47;2.27;;;;;;;;;;6287194;28;20276;-79
2023/01/14 08:44:58;;;;;;;3.60;1.97;;;;;;;;;;6287092;28;20275;-79
2023/01/14 08:48:06;;;;;;;2.00;1.80;;;;;;;;;;6286960;28;20267;-80
2023/01/14 08:51:12;;;;;;;2.40;2.30;;;;;;;;;;6286858;28;20272;-79
2023/01/14 08:54:17;;;;;;;2.77;1.73;;;;;;;;;;6287709;28;20283;-79
2023/01/14 08:57:22;;;;;;;5.87;2.10;;;;;;;;;;6287414;28;20263;-80
2023/01/14 09:00:27;;;;;;;2.70;2.23;;;;;;;;;;6286942;28;20355;-79
2023/01/14 09:03:35;;;;;;;3.60;2.33;;;;;;;;;;6287713;28;20275;-79
2023/01/14 09:20:12;;;;;;;2.40;2.30;;;;;;;;;;6286370;28;20266;-79
2023/01/14 09:23:17;;;;;;;3.00;2.30;;;;;;;;;;6286291;28;20278;-80
2023/01/14 09:26:22;;;;;;;2.10;2.00;;;;;;;;;;6286929;28;20270;-78
2023/01/14 09:29:28;;;;;;;2.83;2.17;;;;;;;;;;6286943;28;20271;-79
2023/01/14 09:32:39;;;;;;;6.37;2.43;;;;;;;;;;6286608;28;20270;-80
2023/01/14 09:35:46;;;;;;;2.87;2.60;;;;;;;;;;6286003;28;20295;-80
2023/01/14 09:38:51;;;;;;;6.03;2.57;;;;;;;;;;6286506;28;20350;-78
2023/01/14 09:41:58;;;;;;;4.07;2.20;;;;;;;;;;6285506;28;20263;-79
2023/01/14 09:45:11;;;;;;;5.00;2.73;;;;;;;;;;6285628;28;20531;-79
2023/01/14 09:48:18;;;;;;;3.70;2.67;;;;;;;;;;6285729;28;20274;-78
2023/01/14 09:51:59;;;;;;;2.30;2.20;;;;;;;;;;6286822;28;20290;-78
2023/01/14 09:55:09;;;;;;;6.37;2.40;;;;;;;;;;6262169;28;20250;-80
2023/01/14 09:58:18;;;;;;;3.43;2.20;;;;;;;;;;6236000;28;20276;-80
2023/01/14 10:01:29;;;;;;;2.60;2.50;;;;;;;;;;6235275;28;20296;-80
2023/01/14 10:05:01;;;;;;;2.60;2.37;;;;;;;;;;6236847;28;20275;-80
2023/01/14 10:08:13;;;;;;;2.57;2.00;;;;;;;;;;6220042;28;20268;-78
2023/01/14 10:11:18;;;;;;;2.47;2.00;;;;;;;;;;6236055;28;20280;-79
2023/01/14 10:14:36;;;;;;;2.43;1.67;;;;;;;;;;6233934;28;20312;-81
2023/01/14 10:17:51;;;;;;;2.03;1.70;;;;;;;;;;6236753;28;20271;-80
2023/01/14 10:20:58;;;;;;;1.77;1.70;;;;;;;;;;6235059;28;20287;-82
2023/01/14 10:24:05;;;;;;;3.40;1.80;;;;;;;;;;6236696;28;20508;-78
2023/01/14 10:27:15;;;;;;;2.37;1.47;;;;;;;;;;6236264;28;20276;-81
2023/01/14 10:30:23;;;;;;;2.03;1.40;;;;;;;;;;6236184;28;20268;-81
2023/01/14 10:33:28;;;;;;;2.67;1.43;;;;;;;;;;6236481;28;20276;-78
2023/01/14 10:36:34;;;;;;;1.60;1.50;;;;;;;;;;6236686;28;20295;-79
2023/01/14 10:39:46;;;;;;;1.40;1.40;;;;;;;;;;6235255;28;20264;-80
2023/01/14 10:42:52;;;;;;;1.37;1.37;;;;;;;;;;6234886;28;20285;-80
2023/01/14 10:45:57;;;;;;;1.80;1.40;;;;;;;;;;6236485;28;20275;-79
2023/01/14 10:49:25;;;;;;;1.50;1.50;;;;;;;;;;6238418;28;20565;-78
2023/01/14 10:52:32;;;;;;;1.37;1.30;;;;;;;;;;6216104;28;20409;-80
2023/01/14 10:55:52;;;;;;;1.10;1.10;;;;;;;;;;6269372;28;20307;-80
2023/01/14 10:58:58;;;;;;;1.50;1.50;;;;;;;;;;6240825;28;20408;-81
2023/01/14 11:02:03;;;;;;;1.00;1.00;;;;;;;;;;6241288;28;20296;-80
2023/01/14 11:05:27;;;;;;;0.97;0.97;;;;;;;;;;6241315;28;20271;-81
2023/01/14 11:08:35;;;;;;;0.90;0.90;;;;;;;;;;6241530;28;20524;-81
2023/01/14 11:11:42;;;;;;;0.90;0.90;;;;;;;;;;6240967;28;20548;-81
2023/01/14 11:14:48;;;;;;;1.00;1.00;;;;;;;;;;6242995;28;20295;-80
2023/01/14 11:17:53;;;;;;;0.90;0.90;;;;;;;;;;6245242;28;20292;-80
2023/01/14 11:21:12;;;;;;;0.80;0.80;;;;;;;;;;6240113;28;20271;-76
2023/01/14 11:24:26;;;;;;;1.03;1.03;;;;;;;;;;6239925;28;20523;-79
2023/01/14 11:27:32;;;;;;;0.70;0.70;;;;;;;;;;6239596;28;20275;-77
2023/01/14 11:30:38;;;;;;;0.70;0.70;;;;;;;;;;6271169;28;20280;-75
2023/01/14 11:33:51;;;;;;;0.77;0.77;;;;;;;;;;6240177;28;20560;-77
2023/01/14 11:37:06;;;;;;;0.87;0.87;;;;;;;;;;6239380;28;20325;-76
2023/01/14 11:40:23;;;;;;;0.87;0.70;;;;;;;;;;6238285;28;20272;-76
2023/01/14 11:43:30;;;;;;;0.80;0.80;;;;;;;;;;6240276;28;20271;-76
2023/01/14 11:46:36;;;;;;;0.80;0.80;;;;;;;;;;6238544;28;20540;-75
2023/01/14 11:49:42;;;;;;;0.80;0.80;;;;;;;;;;6240145;28;20276;-80
2023/01/14 11:53:01;;;;;;;0.87;0.87;;;;;;;;;;6239332;28;20276;-80
2023/01/14 11:56:07;;;;;;;0.80;0.80;;;;;;;;;;6239837;28;20291;-81
2023/01/14 11:59:21;;;;;;;0.80;0.80;;;;;;;;;;6239849;28;20271;-80
2023/01/14 12:02:28;;;;;;;1.10;0.90;;;;;;;;;;6239746;28;20304;-80
2023/01/14 12:05:34;;;;;;;0.90;0.90;;;;;;;;;;6240825;28;20276;-78
2023/01/14 12:08:42;;;;;;;0.80;0.80;;;;;;;;;;6239572;28;20267;-80
2023/01/14 12:11:51;;;;;;;0.97;0.97;;;;;;;;;;6240109;28;20272;-80
2023/01/14 12:18:33;;;;;;;0.90;0.90;;;;;;;;;;6239530;28;20280;-80
2023/01/14 12:21:43;;;;;;;0.90;0.90;;;;;;;;;;6238542;28;20296;-81
2023/01/14 12:25:05;;;;;;;1.20;1.20;;;;;;;;;;6238116;28;20276;-80
2023/01/14 12:28:15;;;;;;;1.00;1.00;;;;;;;;;;6239145;28;20286;-81
2023/01/14 12:31:27;;;;;;;1.10;1.10;;;;;;;;;;6239462;28;20273;-81
2023/01/14 12:34:38;;;;;;;1.00;1.00;;;;;;;;;;6239556;28;20281;-79
2023/01/14 12:37:50;;;;;;;0.80;0.80;;;;;;;;;;6237376;28;20296;-84
2023/01/14 12:47:47;;;;;;;0.90;0.90;;;;;;;;;;6239142;28;20268;-81
2023/01/14 12:50:55;;;;;;;1.00;1.00;;;;;;;;;;6239124;28;20395;-79
2023/01/14 12:54:01;;;;;;;0.90;0.90;;;;;;;;;;6236607;28;20272;-79
2023/01/14 12:57:08;;;;;;;0.90;0.90;;;;;;;;;;6238213;28;20296;-80
2023/01/14 13:00:24;;;;;;;0.80;0.80;;;;;;;;;;6237380;28;20264;-80
2023/01/14 13:03:34;;;;;;;1.53;0.97;;;;;;;;;;6236574;28;20567;-78
2023/01/14 13:06:40;;;;;;;0.93;0.93;;;;;;;;;;6237596;28;20272;-78
2023/01/14 13:09:46;;;;;;;0.97;0.90;;;;;;;;;;6238255;28;20279;-78
2023/01/14 13:12:51;;;;;;;0.70;0.70;;;;;;;;;;6236781;28;20272;-79
2023/01/14 13:15:58;;;;;;;0.83;0.83;;;;;;;;;;6238466;28;20295;-80
2023/01/14 13:19:33;;;;;;;0.80;0.80;;;;;;;;;;6237092;28;20272;-80
2023/01/14 13:22:43;;;;;;;0.80;0.80;;;;;;;;;;6237524;28;20462;-82
2023/01/14 13:25:48;;;;;;;0.73;0.73;;;;;;;;;;6235719;28;20274;-79
2023/01/14 13:29:17;;;;;;;0.70;0.70;;;;;;;;;;6249846;28;20223;-79
2023/01/14 13:32:51;;;;;;;0.90;0.90;;;;;;;;;;6253746;28;20227;-77
2023/01/14 13:36:22;;;;;;;0.80;0.80;;;;;;;;;;6280660;28;20295;-78
2023/01/14 13:39:28;;;;;;;0.80;0.80;;;;;;;;;;6223933;28;20278;-78
2023/01/14 13:42:38;;;;;;;1.03;1.03;;;;;;;;;;6236753;28;20451;-78
2023/01/14 13:45:44;;;;;;;0.90;0.90;;;;;;;;;;6237297;28;20289;-79
2023/01/14 13:48:53;;;;;;;1.00;1.00;;;;;;;;;;6236638;28;20279;-77
2023/01/14 13:52:03;;;;;;;0.90;0.90;;;;;;;;;;6237329;28;20272;-76
2023/01/14 13:55:19;;;;;;;1.27;1.27;;;;;;;;;;6235467;28;20270;-77
2023/01/14 13:58:32;;;;;;;0.83;0.83;;;;;;;;;;6236628;28;20286;-78
2023/01/14 14:01:46;;;;;;;1.00;1.00;;;;;;;;;;6236413;28;20307;-80
2023/01/14 14:05:14;;;;;;;0.93;0.93;;;;;;;;;;6236051;28;20271;-78
2023/01/14 14:08:26;;;;;;;0.80;0.80;;;;;;;;;;6235945;28;20275;-79
2023/01/14 14:11:37;;;;;;;0.93;0.93;;;;;;;;;;6236856;28;20273;-80
2023/01/14 14:14:43;;;;;;;0.70;0.70;;;;;;;;;;6236607;28;20270;-79
2023/01/14 14:17:53;;;;;;;0.80;0.80;;;;;;;;;;6236599;28;20287;-79
2023/01/14 14:20:59;;;;;;;0.80;0.80;;;;;;;;;;6236432;28;20276;-78
2023/01/14 14:24:18;;;;;;;0.80;0.80;;;;;;;;;;6236035;28;20262;-77
2023/01/14 14:27:33;;;;;;;0.90;0.90;;;;;;;;;;6235138;28;20278;-79
2023/01/14 14:30:44;;;;;;;0.70;0.70;;;;;;;;;;6218936;28;20287;-79
2023/01/14 14:34:02;;;;;;;0.80;0.80;;;;;;;;;;6238533;28;20271;-77
2023/01/14 14:37:10;;;;;;;0.90;0.90;;;;;;;;;;6238186;28;20315;-76
2023/01/14 14:40:20;;;;;;;0.80;0.80;;;;;;;;;;6236417;28;20372;-80
2023/01/14 14:43:27;;;;;;;1.10;1.10;;;;;;;;;;6235760;28;20267;-79
2023/01/14 14:46:31;;;;;;;1.20;1.10;;;;;;;;;;6236042;28;20278;-75
2023/01/14 14:49:37;;;;;;;1.10;1.10;;;;;;;;;;6236376;28;20269;-77
2023/01/14 14:52:42;;;;;;;1.33;1.23;;;;;;;;;;6236807;28;20296;-76
2023/01/14 14:55:51;;;;;;;1.10;1.10;;;;;;;;;;6239600;28;20260;-80
2023/01/14 14:58:57;;;;;;;1.20;1.20;;;;;;;;;;6244303;28;20382;-79
2023/01/14 15:02:04;;;;;;;1.60;1.60;;;;;;;;;;6288753;23;20307;-78
2023/01/14 15:05:15;;;;;;;1.40;1.40;;;;;;;;;;6231101;28;20252;-77
2023/01/14 15:08:24;;;;;;;1.73;1.73;;;;;;;;;;6235016;28;20285;-76
2023/01/14 15:11:32;;;;;;;1.80;1.80;;;;;;;;;;6211507;28;20277;-77
2023/01/14 15:14:38;;;;;;;2.40;1.67;;;;;;;;;;6211153;28;20291;-77
2023/01/14 15:17:43;;;;;;;1.50;1.50;;;;;;;;;;6218597;28;20293;-76
2023/01/14 15:20:50;;;;;;;1.43;1.37;;;;;;;;;;6234460;28;20272;-77
2023/01/14 15:23:57;;;;;;;1.40;1.40;;;;;;;;;;6235200;28;20580;-78
2023/01/14 15:27:05;;;;;;;1.43;1.43;;;;;;;;;;6234346;28;20279;-78
2023/01/14 15:30:32;;;;;;;1.60;1.60;;;;;;;;;;6234881;28;20293;-76
2023/01/14 15:33:37;;;;;;;1.57;1.50;;;;;;;;;;6232283;28;20291;-77
2023/01/14 15:36:43;;;;;;;1.33;1.33;;;;;;;;;;6234837;28;20520;-78
2023/01/14 15:39:51;;;;;;;1.30;1.30;;;;;;;;;;6237048;28;20300;-77
2023/01/14 15:43:04;;;;;;;1.57;1.57;;;;;;;;;;6220371;28;20303;-76
2023/01/14 15:46:17;;;;;;;1.50;1.50;;;;;;;;;;6240295;28;20270;-77
2023/01/14 15:49:23;;;;;;;1.47;1.47;;;;;;;;;;6239640;28;20305;-75
2023/01/14 15:52:33;;;;;;;1.60;1.60;;;;;;;;;;6240948;28;20273;-78
2023/01/14 15:55:38;;;;;;;1.90;1.90;;;;;;;;;;6235168;28;20290;-76
2023/01/14 15:59:06;;;;;;;1.60;1.60;;;;;;;;;;6239650;28;20488;-76
2023/01/14 16:02:25;;;;;;;1.80;1.70;;;;;;;;;;6223436;28;20281;-75
2023/01/14 16:05:34;;;;;;;1.90;1.80;;;;;;;;;;6238546;28;20302;-76
2023/01/14 16:08:39;;;;;;;1.90;1.90;;;;;;;;;;6239001;28;20298;-76
2023/01/14 16:11:52;;;;;;;1.93;1.90;;;;;;;;;;6240214;28;20266;-77
2023/01/14 16:15:19;;;;;;;1.70;1.70;;;;;;;;;;6236393;28;20298;-76
2023/01/14 16:18:25;;;;;;;1.80;1.80;;;;;;;;;;6239465;28;20298;-76
2023/01/14 16:21:30;;;;;;;1.77;1.77;;;;;;;;;;6238908;28;20559;-78
2023/01/14 16:24:36;;;;;;;1.93;1.80;;;;;;;;;;6239696;28;20297;-76
2023/01/14 16:27:42;;;;;;;2.00;2.00;;;;;;;;;;6238122;28;20270;-78
2023/01/14 16:30:48;;;;;;;1.90;1.87;;;;;;;;;;6239371;28;20282;-76
2023/01/14 16:33:53;;;;;;;2.07;2.07;;;;;;;;;;6238367;28;20310;-79
2023/01/14 16:37:00;;;;;;;1.97;1.97;;;;;;;;;;6238281;28;20270;-75
2023/01/14 16:40:14;;;;;;;1.97;1.97;;;;;;;;;;6236362;28;20353;-76
2023/01/14 16:43:20;;;;;;;1.73;1.73;;;;;;;;;;6238168;28;20304;-76
2023/01/14 16:46:27;;;;;;;1.97;1.97;;;;;;;;;;6237874;28;20266;-78
2023/01/14 16:49:33;;;;;;;2.43;2.33;;;;;;;;;;6237645;28;20451;-78
2023/01/14 16:52:38;;;;;;;2.67;2.57;;;;;;;;;;6237723;28;20372;-77
2023/01/14 16:55:46;;;;;;;2.40;2.40;;;;;;;;;;6236617;28;20269;-77
2023/01/14 16:58:53;;;;;;;2.67;2.67;;;;;;;;;;6237462;28;20304;-76
2023/01/14 17:01:59;;;;;;;2.30;2.20;;;;;;;;;;6236036;28;20297;-77
2023/01/14 17:05:05;;;;;;;2.53;2.40;;;;;;;;;;6237020;28;20307;-77
2023/01/14 17:08:11;;;;;;;2.40;2.30;;;;;;;;;;6236804;28;20366;-77
2023/01/14 17:14:45;;;;;;;3.83;3.63;;;;;;;;;;6199837;28;20300;-77
2023/01/14 17:17:51;;;;;;;3.43;3.33;;;;;;;;;;6237186;28;20270;-77
2023/01/14 17:20:56;;;;;;;2.77;2.77;;;;;;;;;;6237322;28;20267;-77
2023/01/14 17:24:06;;;;;;;3.30;3.20;;;;;;;;;;6236596;28;20303;-75
2023/01/14 17:27:12;;;;;;;3.50;3.40;;;;;;;;;;6236865;28;20275;-78
2023/01/14 17:30:17;;;;;;;3.00;2.97;;;;;;;;;;6236821;28;20301;-76
2023/01/14 17:33:24;;;;;;;2.70;2.70;;;;;;;;;;6236324;28;20290;-77
2023/01/14 17:36:29;;;;;;;2.60;2.50;;;;;;;;;;6236961;28;20278;-78
2023/01/14 17:39:35;;;;;;;2.40;2.40;;;;;;;;;;6236397;28;20311;-77
2023/01/14 17:42:40;;;;;;;2.60;2.60;;;;;;;;;;6236877;28;20366;-77
2023/01/14 17:45:45;;;;;;;3.03;2.63;;;;;;;;;;6236069;28;20376;-77
2023/01/14 17:48:51;;;;;;;3.13;2.93;;;;;;;;;;6236723;28;20636;-78
2023/01/14 17:51:56;;;;;;;3.70;3.40;;;;;;;;;;6236319;28;20270;-78
2023/01/14 17:55:01;;;;;;;3.53;3.23;;;;;;;;;;6237053;28;20317;-80
2023/01/14 17:58:07;;;;;;;3.57;2.87;;;;;;;;;;6235809;28;20386;-77
2023/01/14 18:01:14;;;;;;;3.17;2.87;;;;;;;;;;6236735;28;20306;-78
2023/01/14 18:04:21;;;;;;;2.53;2.53;;;;;;;;;;6236040;28;20289;-76
2023/01/14 18:07:26;;;;;;;2.70;2.50;;;;;;;;;;6235680;28;20274;-76
2023/01/14 18:10:31;;;;;;;2.30;2.20;;;;;;;;;;6214813;28;20303;-76
2023/01/14 18:13:36;;;;;;;2.03;2.03;;;;;;;;;;6211255;28;20296;-78
2023/01/14 18:16:42;;;;;;;2.20;2.13;;;;;;;;;;6211533;28;20271;-77
2023/01/14 18:19:48;;;;;;;2.23;2.13;;;;;;;;;;6210618;28;20305;-78
2023/01/14 18:22:53;;;;;;;2.50;2.37;;;;;;;;;;6211420;28;20272;-78
2023/01/14 18:26:03;;;;;;;3.73;2.10;;;;;;;;;;6211666;28;20283;-77
2023/01/14 18:29:08;;;;;;;2.10;2.00;;;;;;;;;;6210354;28;20299;-77
2023/01/14 18:32:14;;;;;;;2.20;2.10;;;;;;;;;;6211819;28;20275;-78
2023/01/14 18:35:20;;;;;;;2.07;1.87;;;;;;;;;;6211380;28;20296;-76
2023/01/14 18:38:27;;;;;;;2.30;2.20;;;;;;;;;;6209596;28;20603;-80
2023/01/14 18:41:32;;;;;;;1.93;1.80;;;;;;;;;;6211615;28;20266;-78
2023/01/14 18:44:37;;;;;;;1.50;1.50;;;;;;;;;;6211324;28;20295;-77
2023/01/14 18:47:42;;;;;;;2.40;1.77;;;;;;;;;;6211632;28;20267;-78
2023/01/14 18:50:49;;;;;;;1.57;1.47;;;;;;;;;;6210628;28;20271;-79
2023/01/14 18:53:55;;;;;;;2.50;1.63;;;;;;;;;;6211540;28;20380;-80
2023/01/14 18:57:01;;;;;;;1.80;1.70;;;;;;;;;;6211107;28;20276;-78
2023/01/14 19:00:08;;;;;;;1.70;1.57;;;;;;;;;;6210501;28;20310;-81
2023/01/14 19:03:13;;;;;;;2.07;1.97;;;;;;;;;;6211249;28;20283;-81
2023/01/14 19:06:23;;;;;;;1.97;1.90;;;;;;;;;;6210138;28;20467;-81
2023/01/14 19:09:29;;;;;;;2.03;1.93;;;;;;;;;;6206156;28;20298;-81
2023/01/14 19:12:34;;;;;;;2.17;2.13;;;;;;;;;;6236076;28;20275;-76
2023/01/14 19:15:39;;;;;;;3.37;2.37;;;;;;;;;;6239092;28;20290;-80
2023/01/14 19:18:44;;;;;;;2.17;2.03;;;;;;;;;;6240990;28;20302;-76
2023/01/14 19:21:51;;;;;;;3.17;2.00;;;;;;;;;;6242753;28;20582;-77
2023/01/14 19:24:57;;;;;;;3.00;1.80;;;;;;;;;;6240614;28;20294;-77
2023/01/14 19:28:02;;;;;;;5.67;1.83;;;;;;;;;;6237939;28;20302;-76
2023/01/14 19:31:10;;;;;;;4.33;2.00;;;;;;;;;;6239544;28;20278;-77
2023/01/14 19:34:15;;;;;;;1.83;1.73;;;;;;;;;;6239616;28;20297;-77
2023/01/14 19:37:21;;;;;;;1.80;1.70;;;;;;;;;;6240223;28;20277;-84